Terminal Aerodrome Forecast
Issued by NWS

Home | Current Version | Previous Version | Text Only | Print | Product List | Glossary On
Versions: 1 2 3 4 5 6 7 8 9 10 11 12 13 14 15
000
FTUS43 KICT 202320
TAFRSL
TAF
KRSL 202320Z 2100/2124 19010KT P6SM BKN250
     FM210600 27007KT P6SM SCT250
     FM211000 31010KT P6SM BKN110
     FM211500 35019G27KT P6SM BKN100=

USA.gov is the U.S. government's official web portal to all federal, state and local government web resources and services.